Time;durP1;ratioP1;P1;durP2;ratioP2;P2;SDS_P1;SDS_P2;PMS_P1;PMS_P2;Temp;Humidity;BMP_temperature;BMP_pressure;BME280_temperature;BME280_humidity;BME280_pressure;Samples;Min_cycle;Max_cycle;Signal;HPM_P1;HPM_P2
2022/04/09 00:00:21;;;;;;;0.50;0.50;;;;;;;0.82;100.00;96485.91;4997570;28;20536;-69
2022/04/09 00:02:48;;;;;;;0.33;0.33;;;;;;;0.89;100.00;96500.63;4997567;28;20849;-69
2022/04/09 00:05:15;;;;;;;2.77;0.43;;;;;;;0.97;100.00;96502.25;4997400;28;20480;-69
2022/04/09 00:07:42;;;;;;;0.40;0.40;;;;;;;0.97;100.00;96526.63;4997131;28;20480;-69
2022/04/09 00:10:10;;;;;;;0.60;0.60;;;;;;;0.92;100.00;96549.94;4997116;28;20433;-68
2022/04/09 00:12:36;;;;;;;0.70;0.70;;;;;;;1.01;100.00;96558.41;4996929;28;20447;-69
2022/04/09 00:15:03;;;;;;;0.80;0.80;;;;;;;1.00;100.00;96560.25;4996702;28;20447;-68
2022/04/09 00:17:36;;;;;;;1.00;1.00;;;;;;;1.05;100.00;96575.34;4996636;28;20471;-68
2022/04/09 00:20:03;;;;;;;1.30;1.20;;;;;;;1.03;100.00;96598.28;4996630;28;20443;-68
2022/04/09 00:22:30;;;;;;;1.17;1.17;;;;;;;1.10;100.00;96628.72;4996218;28;20982;-68
2022/04/09 00:24:56;;;;;;;1.13;1.10;;;;;;;1.16;100.00;96645.41;4996870;28;20551;-67
2022/04/09 00:27:23;;;;;;;1.20;1.07;;;;;;;1.16;100.00;96650.66;4996711;28;20480;-68
2022/04/09 00:29:49;;;;;;;2.60;1.20;;;;;;;1.10;100.00;96661.91;4996976;28;20440;-68
2022/04/09 00:32:16;;;;;;;0.90;0.90;;;;;;;1.19;100.00;96671.22;4996755;28;20447;-68
2022/04/09 00:34:43;;;;;;;0.90;0.90;;;;;;;1.14;100.00;96679.66;4995703;28;20573;-68
2022/04/09 00:37:09;;;;;;;1.10;1.10;;;;;;;1.14;100.00;96671.00;4996795;28;20453;-68
2022/04/09 00:39:36;;;;;;;1.43;1.23;;;;;;;1.18;100.00;96675.66;4996535;28;20781;-69
2022/04/09 00:42:02;;;;;;;1.60;1.50;;;;;;;1.20;100.00;96685.91;4996737;28;20447;-69
2022/04/09 00:44:28;;;;;;;1.40;1.30;;;;;;;1.22;100.00;96682.09;4996686;28;20441;-68
2022/04/09 00:46:55;;;;;;;1.10;1.00;;;;;;;1.19;100.00;96686.91;4996276;28;21010;-69
2022/04/09 00:49:21;;;;;;;1.30;1.20;;;;;;;1.20;100.00;96710.28;4996592;28;20868;-69
2022/04/09 00:51:51;;;;;;;1.20;1.20;;;;;;;1.14;100.00;96716.31;4996603;28;20437;-68
2022/04/09 00:54:23;;;;;;;1.10;1.03;;;;;;;1.17;100.00;96721.13;4996563;28;20437;-68
2022/04/09 00:56:52;;;;;;;1.00;1.00;;;;;;;1.19;100.00;96732.22;4996857;28;20457;-69
2022/04/09 00:59:24;;;;;;;0.93;0.93;;;;;;;1.17;100.00;96728.19;4996146;28;21002;-69
2022/04/09 01:01:53;;;;;;;1.20;1.10;;;;;;;1.19;100.00;96753.16;4996993;28;20483;-69
2022/04/09 01:04:20;;;;;;;1.10;1.03;;;;;;;1.17;100.00;96763.00;4996402;28;20437;-69
2022/04/09 01:06:47;;;;;;;0.90;0.90;;;;;;;1.25;100.00;96775.13;4996178;28;20520;-68
2022/04/09 01:09:14;;;;;;;0.70;0.70;;;;;;;1.23;100.00;96777.97;4996326;28;20495;-69
2022/04/09 01:11:41;;;;;;;0.77;0.77;;;;;;;1.28;100.00;96800.94;4996203;28;20445;-69
2022/04/09 01:14:07;;;;;;;0.90;0.90;;;;;;;1.20;100.00;96817.59;4995861;28;20801;-69
2022/04/09 01:16:35;;;;;;;0.80;0.80;;;;;;;1.37;100.00;96821.56;4996033;28;20203;-68
2022/04/09 01:19:02;;;;;;;1.27;1.10;;;;;;;1.38;100.00;96833.63;4996113;28;20230;-68
2022/04/09 01:21:29;;;;;;;1.10;1.00;;;;;;;1.35;100.00;96843.69;4996091;28;20207;-68
2022/04/09 01:23:56;;;;;;;1.00;1.00;;;;;;;1.31;100.00;96852.91;4995752;28;20693;-67
2022/04/09 01:26:23;;;;;;;1.27;1.10;;;;;;;1.45;100.00;96847.59;4995823;28;20223;-67
2022/04/09 01:28:50;;;;;;;1.10;1.10;;;;;;;1.46;100.00;96848.38;4995944;28;20471;-67
2022/04/09 01:31:17;;;;;;;1.23;1.13;;;;;;;1.41;100.00;96864.69;4995911;28;20207;-68
2022/04/09 01:33:44;;;;;;;1.50;1.40;;;;;;;1.37;100.00;96867.84;4995811;28;20211;-68
2022/04/09 01:36:11;;;;;;;1.67;1.57;;;;;;;1.39;100.00;96878.97;4995778;28;20807;-68
2022/04/09 01:38:39;;;;;;;2.53;1.70;;;;;;;1.46;100.00;96880.63;4995585;28;20457;-69
2022/04/09 01:41:05;;;;;;;1.67;1.57;;;;;;;1.53;100.00;96899.00;4995763;28;20239;-68
2022/04/09 01:43:32;;;;;;;1.70;1.60;;;;;;;1.57;100.00;96902.88;4995685;28;20445;-68
2022/04/09 01:45:58;;;;;;;2.20;1.50;;;;;;;1.55;100.00;96910.09;4995312;28;20481;-68
2022/04/09 01:48:25;;;;;;;2.00;1.80;;;;;;;1.47;100.00;96923.31;4995505;28;20229;-68
2022/04/09 01:50:51;;;;;;;2.10;2.00;;;;;;;1.60;100.00;96926.03;4995490;28;20211;-68
2022/04/09 01:53:18;;;;;;;2.37;2.17;;;;;;;1.64;100.00;96930.72;4995422;28;20211;-68
2022/04/09 01:55:45;;;;;;;2.30;2.13;;;;;;;1.57;100.00;96944.75;4995452;28;20219;-68
2022/04/09 01:58:11;;;;;;;2.47;2.20;;;;;;;1.54;100.00;96938.06;4995271;28;20230;-68
2022/04/09 02:00:37;;;;;;;2.50;2.30;;;;;;;1.56;100.00;96943.13;4995265;28;20208;-68
2022/04/09 02:03:04;;;;;;;2.73;2.53;;;;;;;1.58;100.00;96944.56;4994954;28;20441;-68
2022/04/09 02:05:30;;;;;;;2.80;2.60;;;;;;;1.64;100.00;96949.06;4995214;28;20211;-67
2022/04/09 02:07:57;;;;;;;2.73;2.53;;;;;;;1.63;100.00;96955.25;4994889;28;20237;-68
2022/04/09 02:10:24;;;;;;;2.60;2.40;;;;;;;1.61;100.00;96965.13;4995105;28;20211;-68
2022/04/09 02:12:50;;;;;;;2.77;2.57;;;;;;;1.63;100.00;96968.38;4995570;28;20217;-68
2022/04/09 02:15:17;;;;;;;6.07;3.13;;;;;;;1.62;100.00;96986.91;4995035;28;20207;-67
2022/04/09 02:17:45;;;;;;;3.50;3.20;;;;;;;1.68;100.00;96994.00;4994953;28;20223;-68
2022/04/09 02:20:13;;;;;;;2.70;2.50;;;;;;;1.64;100.00;96995.38;4994953;28;20296;-68
2022/04/09 02:22:42;;;;;;;3.07;2.87;;;;;;;1.59;100.00;96998.59;4994649;28;20689;-68
2022/04/09 02:25:11;;;;;;;3.60;2.47;;;;;;;1.66;100.00;97009.13;4994913;28;20573;-67
2022/04/09 02:27:38;;;;;;;3.00;2.80;;;;;;;1.67;100.00;97018.59;4994713;28;20231;-67
2022/04/09 02:30:07;;;;;;;3.30;3.00;;;;;;;1.69;100.00;97029.66;4994834;28;20292;-67
2022/04/09 02:32:51;;;;;;;3.23;2.87;;;;;;;1.70;100.00;97041.75;4994768;28;20226;-67
2022/04/09 02:35:22;;;;;;;3.90;3.10;;;;;;;1.79;100.00;97038.00;4994491;28;20639;-67
2022/04/09 02:37:49;;;;;;;3.60;3.00;;;;;;;1.75;100.00;97048.06;4994653;28;20262;-68
2022/04/09 02:40:16;;;;;;;3.73;3.20;;;;;;;1.67;100.00;97057.88;4994679;28;20580;-68
2022/04/09 02:42:43;;;;;;;4.00;3.70;;;;;;;1.73;100.00;97071.03;4994615;28;20207;-68
2022/04/09 02:45:12;;;;;;;5.43;4.00;;;;;;;1.79;100.00;97078.13;4994592;28;20210;-68
2022/04/09 02:47:39;;;;;;;4.27;3.97;;;;;;;1.73;100.00;97081.53;4994411;28;20640;-68
2022/04/09 02:50:07;;;;;;;4.20;3.90;;;;;;;1.75;100.00;97091.81;4994513;28;20207;-68
2022/04/09 02:52:34;;;;;;;4.27;3.93;;;;;;;1.75;100.00;97108.31;4994455;28;20207;-68
2022/04/09 02:55:01;;;;;;;4.10;3.73;;;;;;;1.73;100.00;97106.91;4994467;28;20204;-68
2022/04/09 02:57:28;;;;;;;4.77;4.30;;;;;;;1.77;100.00;97116.00;4993494;28;20725;-69
2022/04/09 02:59:54;;;;;;;4.17;3.77;;;;;;;1.77;100.00;97119.44;4994245;28;20214;-68
2022/04/09 03:02:20;;;;;;;4.40;4.00;;;;;;;1.82;100.00;97126.72;4993961;28;20580;-68
2022/04/09 03:04:47;;;;;;;4.40;4.00;;;;;;;1.83;100.00;97133.59;4994296;28;20214;-68
2022/04/09 03:07:13;;;;;;;4.77;4.23;;;;;;;1.80;100.00;97150.50;4993889;28;20231;-67
2022/04/09 03:09:39;;;;;;;4.23;3.83;;;;;;;1.85;100.00;97157.81;4994230;28;20198;-68
2022/04/09 03:12:06;;;;;;;4.53;4.13;;;;;;;1.80;100.00;97176.69;4994188;28;20203;-68
2022/04/09 03:14:32;;;;;;;4.40;4.00;;;;;;;1.90;100.00;97176.41;4994680;28;20207;-68
2022/04/09 03:16:59;;;;;;;4.63;4.17;;;;;;;1.85;100.00;97181.41;4993765;28;20710;-68
2022/04/09 03:19:25;;;;;;;5.30;4.67;;;;;;;1.85;100.00;97171.72;4993846;28;20207;-68
2022/04/09 03:21:51;;;;;;;4.40;3.97;;;;;;;1.95;100.00;97187.97;4994052;28;20207;-68
2022/04/09 03:24:18;;;;;;;4.70;4.23;;;;;;;2.00;100.00;97187.38;4993995;28;20298;-68
2022/04/09 03:26:45;;;;;;;5.33;4.10;;;;;;;2.01;100.00;97186.38;4993722;28;20314;-68
2022/04/09 03:29:11;;;;;;;4.70;4.30;;;;;;;1.96;100.00;97202.69;4993924;28;20207;-68
2022/04/09 03:31:37;;;;;;;4.53;4.20;;;;;;;2.02;100.00;97203.72;4993713;28;20207;-68
2022/04/09 03:34:05;;;;;;;4.20;3.80;;;;;;;2.04;100.00;97207.00;4992757;28;20219;-69
2022/04/09 03:36:31;;;;;;;4.20;3.90;;;;;;;2.10;100.00;97212.31;4993948;28;20206;-68
2022/04/09 03:38:58;;;;;;;4.50;4.20;;;;;;;2.10;100.00;97214.09;4993909;28;20212;-69
2022/04/09 03:41:24;;;;;;;4.43;4.03;;;;;;;2.15;100.00;97216.97;4993900;28;20203;-69
2022/04/09 03:43:51;;;;;;;4.53;4.17;;;;;;;2.11;100.00;97219.16;4993783;28;20230;-69
2022/04/09 03:46:17;;;;;;;4.77;4.37;;;;;;;2.20;100.00;97231.16;4993667;28;20211;-68
2022/04/09 03:48:44;;;;;;;5.20;4.80;;;;;;;2.18;100.00;97230.53;4993888;28;20218;-69
2022/04/09 03:51:11;;;;;;;5.40;4.83;;;;;;;2.33;100.00;97238.34;4993536;28;20670;-69
2022/04/09 03:53:37;;;;;;;4.90;4.50;;;;;;;2.37;100.00;97256.16;4993535;28;20570;-69
2022/04/09 03:56:05;;;;;;;5.47;5.03;;;;;;;2.31;100.00;97243.75;4994308;28;20211;-69
2022/04/09 03:58:31;;;;;;;6.30;5.70;;;;;;;2.29;100.00;97255.44;4993729;28;20227;-69
2022/04/09 04:00:58;;;;;;;7.83;7.10;;;;;;;2.37;100.00;97271.06;4993975;28;20214;-68
2022/04/09 04:03:25;;;;;;;7.93;7.03;;;;;;;2.40;100.00;97266.25;4993805;28;20218;-68
2022/04/09 04:05:52;;;;;;;13.30;7.63;;;;;;;2.42;100.00;97276.53;4994178;28;20732;-69
2022/04/09 04:08:18;;;;;;;10.00;9.07;;;;;;;2.38;100.00;97281.38;4995519;28;20237;-69
2022/04/09 04:10:44;;;;;;;10.63;9.53;;;;;;;2.41;100.00;97282.81;4997217;28;20211;-69
2022/04/09 04:13:11;;;;;;;12.03;10.20;;;;;;;2.43;100.00;97276.38;4997210;28;20211;-70
2022/04/09 04:15:37;;;;;;;11.47;10.23;;;;;;;2.36;100.00;97290.41;4997215;28;20573;-70
2022/04/09 04:18:05;;;;;;;10.13;9.13;;;;;;;2.36;100.00;97288.63;4997696;28;20227;-68
2022/04/09 04:20:31;;;;;;;10.60;9.23;;;;;;;2.34;100.00;97298.47;4996897;28;20211;-68
2022/04/09 04:22:58;;;;;;;11.77;10.03;;;;;;;2.30;100.00;97301.66;4996851;28;20208;-69
2022/04/09 04:25:25;;;;;;;11.67;9.97;;;;;;;2.31;100.00;97313.78;4997102;28;20208;-69
2022/04/09 04:27:51;;;;;;;13.87;10.70;;;;;;;2.30;100.00;97309.53;4996645;28;20605;-68
2022/04/09 04:30:19;;;;;;;14.77;10.97;;;;;;;2.28;100.00;97319.38;4997043;28;20207;-69
2022/04/09 04:32:45;;;;;;;13.83;11.57;;;;;;;2.30;100.00;97330.50;4997340;28;20662;-68
2022/04/09 04:35:12;;;;;;;11.33;10.23;;;;;;;2.29;100.00;97331.47;4996474;28;20572;-68
2022/04/09 04:37:43;;;;;;;13.57;11.80;;;;;;;2.26;100.00;97337.13;4996744;28;20223;-68
2022/04/09 04:40:11;;;;;;;13.80;10.70;;;;;;;2.19;100.00;97341.47;4996813;28;20226;-69
2022/04/09 04:42:37;;;;;;;13.20;10.83;;;;;;;2.25;100.00;97349.41;4996719;28;20213;-68
2022/04/09 04:45:05;;;;;;;12.80;11.50;;;;;;;2.26;100.00;97356.25;4996701;28;20211;-68
2022/04/09 04:47:32;;;;;;;16.23;11.40;;;;;;;2.21;100.00;97358.63;4996316;28;20247;-68
2022/04/09 04:49:58;;;;;;;11.97;10.57;;;;;;;2.19;100.00;97362.44;4996604;28;20306;-68
2022/04/09 04:52:25;;;;;;;12.10;10.77;;;;;;;2.14;100.00;97370.03;4996501;28;20576;-68
2022/04/09 04:54:51;;;;;;;15.07;12.23;;;;;;;2.06;100.00;97368.34;4996536;28;20229;-69
2022/04/09 04:57:17;;;;;;;14.67;11.40;;;;;;;2.15;100.00;97375.09;4996349;28;20238;-68
2022/04/09 04:59:44;;;;;;;11.93;10.37;;;;;;;2.17;100.00;97385.41;4996325;28;20211;-68
2022/04/09 05:02:10;;;;;;;16.53;11.67;;;;;;;2.28;100.00;97396.25;4995528;28;20211;-68
2022/04/09 05:04:36;;;;;;;16.13;11.90;;;;;;;2.14;100.00;97388.38;4995515;28;20214;-68
2022/04/09 05:07:03;;;;;;;13.80;11.70;;;;;;;2.13;100.00;97400.69;4995466;28;20231;-68
2022/04/09 05:09:29;;;;;;;16.10;11.70;;;;;;;2.24;100.00;97407.28;4995897;28;20653;-68
2022/04/09 05:11:56;;;;;;;12.80;11.40;;;;;;;2.25;100.00;97414.97;4996182;28;20203;-69
2022/04/09 05:14:22;;;;;;;12.20;11.00;;;;;;;2.24;100.00;97420.38;4996079;28;20233;-68
2022/04/09 05:16:48;;;;;;;16.33;11.57;;;;;;;2.31;100.00;97422.09;4995993;28;20227;-69
2022/04/09 05:19:15;;;;;;;14.00;10.47;;;;;;;2.22;100.00;97427.63;4995051;28;20553;-69
2022/04/09 05:21:42;;;;;;;13.60;11.20;;;;;;;2.29;100.00;97433.75;4995658;28;20619;-68
2022/04/09 05:24:09;;;;;;;13.07;10.60;;;;;;;2.30;100.00;97427.53;4995909;28;20211;-68
2022/04/09 05:26:35;;;;;;;12.27;9.80;;;;;;;2.33;100.00;97437.66;4995784;28;20302;-68
2022/04/09 05:29:01;;;;;;;14.90;10.93;;;;;;;2.45;100.00;97441.44;4995926;28;20207;-68
2022/04/09 05:31:28;;;;;;;12.83;11.50;;;;;;;2.48;100.00;97439.25;4995819;28;20214;-69
2022/04/09 05:33:56;;;;;;;16.53;11.30;;;;;;;2.49;100.00;97448.75;4995732;28;20211;-69
2022/04/09 05:36:22;;;;;;;12.60;11.23;;;;;;;2.59;100.00;97454.53;4995647;28;20226;-68
2022/04/09 05:38:49;;;;;;;13.27;11.30;;;;;;;2.56;100.00;97454.91;4995472;28;20207;-69
2022/04/09 05:41:15;;;;;;;12.83;10.83;;;;;;;2.57;100.00;97464.38;4995427;28;20213;-69
2022/04/09 05:43:42;;;;;;;13.07;10.43;;;;;;;2.55;100.00;97471.66;4995394;28;20214;-69
2022/04/09 05:46:08;;;;;;;10.47;8.50;;;;;;;2.58;100.00;97476.50;4995200;28;20204;-69
2022/04/09 05:48:34;;;;;;;10.13;9.13;;;;;;;2.61;100.00;97481.41;4995141;28;20239;-68
2022/04/09 05:51:01;;;;;;;12.33;9.27;;;;;;;2.64;100.00;97488.09;4995339;28;20203;-68
2022/04/09 05:53:27;;;;;;;13.73;9.23;;;;;;;2.73;100.00;97493.06;4995377;28;20223;-68
2022/04/09 05:55:54;;;;;;;9.10;8.23;;;;;;;2.70;100.00;97496.03;4995192;28;20249;-68
2022/04/09 05:58:20;;;;;;;10.83;8.93;;;;;;;2.78;100.00;97501.19;4995196;28;20232;-68
2022/04/09 06:00:46;;;;;;;9.97;8.87;;;;;;;2.69;100.00;97502.28;4995245;28;20207;-68
2022/04/09 06:03:13;;;;;;;12.80;9.63;;;;;;;2.70;100.00;97514.41;4995039;28;20207;-69
2022/04/09 06:05:39;;;;;;;9.70;8.60;;;;;;;2.59;100.00;97516.69;4994967;28;20203;-68
2022/04/09 06:08:05;;;;;;;10.23;9.20;;;;;;;2.53;100.00;97525.28;4994548;28;20227;-68
2022/04/09 06:10:32;;;;;;;11.53;9.23;;;;;;;2.52;100.00;97531.53;4995096;28;20214;-69
2022/04/09 06:12:58;;;;;;;15.90;9.00;;;;;;;2.62;100.00;97543.38;4994960;28;20213;-68
2022/04/09 06:15:25;;;;;;;10.33;8.60;;;;;;;2.61;100.00;97536.50;4994673;28;20685;-68
2022/04/09 06:17:51;;;;;;;12.27;9.60;;;;;;;2.64;100.00;97546.66;4994815;28;20246;-69
2022/04/09 06:20:18;;;;;;;8.83;7.97;;;;;;;2.78;100.00;97552.88;4994757;28;20207;-69
2022/04/09 06:22:44;;;;;;;11.47;8.73;;;;;;;2.81;100.00;97547.25;4994503;28;20335;-69
2022/04/09 06:25:10;;;;;;;8.50;7.60;;;;;;;2.95;100.00;97551.69;4994600;28;20207;-69
2022/04/09 06:27:41;;;;;;;9.67;7.63;;;;;;;2.92;100.00;97565.97;4994413;28;20227;-69
2022/04/09 06:30:09;;;;;;;10.13;7.83;;;;;;;2.99;100.00;97561.59;4993901;28;20207;-69
2022/04/09 06:32:36;;;;;;;8.13;7.17;;;;;;;2.95;100.00;97573.50;4993483;28;20262;-69
2022/04/09 06:35:02;;;;;;;9.03;7.03;;;;;;;3.03;98.50;97583.09;4994460;28;20207;-69
2022/04/09 06:37:29;;;;;;;12.47;7.27;;;;;;;3.10;100.00;97594.47;4994314;28;20586;-69
2022/04/09 06:39:55;;;;;;;8.83;6.70;;;;;;;3.10;99.71;97597.09;4994309;28;20579;-68
2022/04/09 06:42:22;;;;;;;7.77;6.97;;;;;;;3.25;99.36;97592.66;4994263;28;20230;-69
2022/04/09 06:44:48;;;;;;;9.20;7.03;;;;;;;3.22;100.00;97593.00;4993991;28;20215;-69
2022/04/09 06:47:15;;;;;;;8.80;6.20;;;;;;;3.16;98.29;97604.25;4994369;28;20231;-69
2022/04/09 06:49:41;;;;;;;8.27;6.20;;;;;;;3.15;99.83;97606.06;4994307;28;20291;-69
2022/04/09 06:52:08;;;;;;;7.13;6.00;;;;;;;3.13;96.00;97610.69;4995163;28;20209;-69
2022/04/09 06:54:34;;;;;;;7.53;6.10;;;;;;;3.25;97.25;97613.66;4994354;28;20207;-69
2022/04/09 06:57:00;;;;;;;7.20;6.00;;;;;;;3.31;95.12;97615.56;4994165;28;20253;-69
2022/04/09 06:59:27;;;;;;;13.20;7.27;;;;;;;3.43;100.00;97614.09;4994319;28;20238;-69
2022/04/09 07:01:53;;;;;;;10.53;6.00;;;;;;;3.36;95.95;97631.56;4994201;28;20214;-68
2022/04/09 07:04:19;;;;;;;8.37;7.10;;;;;;;3.53;99.96;97625.09;4994102;28;20215;-69
2022/04/09 07:06:46;;;;;;;7.60;5.43;;;;;;;3.43;93.92;97627.22;4994025;28;20234;-69
2022/04/09 07:09:13;;;;;;;7.63;6.23;;;;;;;3.48;95.15;97638.78;4993894;28;20293;-69
2022/04/09 07:11:40;;;;;;;8.43;6.73;;;;;;;3.59;96.40;97638.31;4994169;28;20215;-68
2022/04/09 07:14:06;;;;;;;10.90;6.37;;;;;;;3.61;98.52;97635.50;4994183;28;20207;-68
2022/04/09 07:16:33;;;;;;;10.07;6.17;;;;;;;3.87;96.71;97643.66;4994071;28;20211;-69
2022/04/09 07:18:59;;;;;;;5.90;5.20;;;;;;;3.59;91.58;97661.16;4993945;28;20207;-69
2022/04/09 07:21:25;;;;;;;8.47;5.67;;;;;;;3.73;95.94;97665.56;4993599;28;20574;-69
2022/04/09 07:23:52;;;;;;;7.80;4.87;;;;;;;3.93;94.07;97664.75;4993916;28;20290;-69
2022/04/09 07:26:20;;;;;;;6.67;5.33;;;;;;;4.19;92.73;97670.28;4993433;28;20705;-69
2022/04/09 07:28:47;;;;;;;8.60;5.40;;;;;;;4.17;94.30;97676.75;4993716;28;20222;-68
2022/04/09 07:31:13;;;;;;;6.80;4.77;;;;;;;4.11;90.52;97678.31;4993179;28;20542;-69
2022/04/09 07:33:40;;;;;;;7.00;5.23;;;;;;;4.47;94.03;97684.31;4993116;28;20207;-69
2022/04/09 07:36:07;;;;;;;7.57;4.40;;;;;;;4.48;89.49;97687.75;4993444;28;20660;-69
2022/04/09 07:38:33;;;;;;;5.73;4.47;;;;;;;4.30;90.30;97695.28;4993411;28;20230;-69
2022/04/09 07:40:59;;;;;;;7.00;4.73;;;;;;;4.39;92.64;97694.16;4993333;28;20570;-68
2022/04/09 07:43:26;;;;;;;6.30;4.90;;;;;;;4.58;92.53;97704.03;4996183;28;20207;-69
2022/04/09 07:45:52;;;;;;;6.60;4.30;;;;;;;4.59;85.86;97706.50;4997260;28;20670;-69
2022/04/09 07:48:20;;;;;;;8.27;3.80;;;;;;;4.60;85.92;97717.81;4997365;28;20231;-68
2022/04/09 07:50:46;;;;;;;7.00;3.90;;;;;;;4.79;87.54;97712.72;4997435;28;20215;-68
2022/04/09 07:53:12;;;;;;;7.50;3.90;;;;;;;4.58;88.89;97714.56;4997522;28;20568;-68
2022/04/09 07:55:39;;;;;;;9.83;4.00;;;;;;;4.46;86.06;97731.88;4997076;28;20577;-68
2022/04/09 07:58:08;;;;;;;7.73;3.83;;;;;;;4.69;87.55;97729.84;4997544;28;20223;-68
2022/04/09 08:00:35;;;;;;;6.57;3.90;;;;;;;4.47;84.62;97734.31;4997389;28;20212;-69
2022/04/09 08:03:01;;;;;;;9.37;4.17;;;;;;;4.45;86.53;97733.69;4997383;28;20211;-68
2022/04/09 08:05:28;;;;;;;9.47;3.60;;;;;;;4.41;85.10;97739.50;4997865;28;20211;-69
2022/04/09 08:07:54;;;;;;;10.07;3.63;;;;;;;4.42;87.52;97735.88;4996784;28;20238;-68
2022/04/09 08:10:20;;;;;;;9.47;3.30;;;;;;;4.22;84.27;97742.75;4997286;28;20226;-69
2022/04/09 08:12:49;;;;;;;6.23;3.53;;;;;;;4.31;85.87;97739.84;4996818;28;20749;-68
2022/04/09 08:15:17;;;;;;;11.27;4.23;;;;;;;4.37;93.82;97740.88;4996160;28;20306;-68
2022/04/09 08:17:44;;;;;;;8.80;3.47;;;;;;;4.34;88.65;97755.22;4995928;28;20299;-68
2022/04/09 08:20:12;;;;;;;6.10;3.03;;;;;;;4.40;84.73;97751.88;4996101;28;20211;-68
2022/04/09 08:22:38;;;;;;;5.53;3.77;;;;;;;4.66;87.63;97760.00;4996858;28;20211;-68
2022/04/09 08:25:05;;;;;;;7.90;3.40;;;;;;;4.78;85.17;97755.03;4996625;28;20233;-68
2022/04/09 08:27:32;;;;;;;6.23;3.20;;;;;;;4.78;85.63;97755.03;4996392;28;20224;-69
2022/04/09 08:29:59;;;;;;;5.30;3.47;;;;;;;4.91;84.95;97769.13;4996453;28;20207;-69
2022/04/09 08:32:25;;;;;;;6.77;3.40;;;;;;;5.10;86.40;97755.31;4996607;28;20215;-68
2022/04/09 08:34:53;;;;;;;6.53;3.17;;;;;;;4.60;81.29;97766.03;4996588;28;20234;-68
2022/04/09 08:37:19;;;;;;;7.77;3.77;;;;;;;4.96;86.38;97761.47;4996684;28;20227;-68
2022/04/09 08:39:45;;;;;;;5.63;3.37;;;;;;;4.72;82.60;97776.88;4997208;28;20207;-68
2022/04/09 08:42:13;;;;;;;5.97;2.97;;;;;;;4.54;81.00;97776.50;4996104;28;20217;-69
2022/04/09 08:44:40;;;;;;;6.20;3.20;;;;;;;4.50;85.06;97769.97;4994315;28;20203;-69
2022/04/09 08:47:06;;;;;;;9.83;3.53;;;;;;;4.53;82.85;97774.88;4995563;28;20227;-69
2022/04/09 08:49:37;;;;;;;9.30;3.50;;;;;;;4.57;82.51;97779.56;4995950;28;20586;-69
2022/04/09 08:52:08;;;;;;;8.57;3.30;;;;;;;4.50;82.08;97781.31;4995808;28;20191;-69
2022/04/09 08:54:37;;;;;;;5.10;3.43;;;;;;;4.90;84.46;97783.31;4994863;28;20198;-69
2022/04/09 08:57:04;;;;;;;5.87;3.23;;;;;;;4.86;81.07;97791.78;4995664;28;20227;-69
2022/04/09 08:59:31;;;;;;;10.40;3.53;;;;;;;4.94;82.50;97792.47;4994491;28;20210;-69
2022/04/09 09:01:58;;;;;;;8.00;3.80;;;;;;;5.18;82.09;97791.22;4996990;28;20211;-69
2022/04/09 09:04:25;;;;;;;11.00;3.40;;;;;;;5.23;81.71;97789.66;4995923;28;20567;-69
2022/04/09 09:06:51;;;;;;;8.40;4.00;;;;;;;5.34;80.72;97791.75;4996136;28;20244;-69
2022/04/09 09:09:29;;;;;;;4.27;3.53;;;;;;;5.74;78.66;97800.75;4996125;28;20231;-69
2022/04/09 09:11:56;;;;;;;9.97;4.13;;;;;;;5.63;81.62;97790.72;4995761;28;20303;-69
2022/04/09 09:14:32;;;;;;;7.40;3.47;;;;;;;5.77;81.51;97797.69;4995957;28;20203;-69
2022/04/09 09:16:59;;;;;;;8.03;3.37;;;;;;;5.75;77.16;97799.72;4995880;28;20227;-69
2022/04/09 09:19:43;;;;;;;8.47;3.57;;;;;;;5.27;76.54;97795.34;4995874;28;20207;-69
2022/04/09 09:22:10;;;;;;;4.83;3.20;;;;;;;5.50;79.23;97791.47;4995816;28;20575;-69
2022/04/09 09:24:36;;;;;;;6.07;3.10;;;;;;;5.52;78.94;97794.72;4995911;28;20230;-69
2022/04/09 09:27:04;;;;;;;7.97;3.17;;;;;;;5.72;78.70;97793.03;4995790;28;20231;-69
2022/04/09 09:29:31;;;;;;;5.50;2.80;;;;;;;5.72;79.57;97800.94;4995680;28;20234;-69
2022/04/09 09:31:59;;;;;;;6.07;2.80;;;;;;;5.78;76.64;97804.59;4995670;28;20207;-69
2022/04/09 09:34:26;;;;;;;4.20;2.63;;;;;;;6.07;75.83;97794.63;4995402;28;20211;-70
2022/04/09 09:36:53;;;;;;;7.80;2.60;;;;;;;5.88;73.00;97813.81;4995467;28;20231;-68
2022/04/09 09:39:21;;;;;;;7.63;3.43;;;;;;;5.95;73.21;97800.66;4995408;28;20203;-69
2022/04/09 09:41:52;;;;;;;6.23;3.20;;;;;;;6.26;75.69;97812.38;4995308;28;20342;-69
2022/04/09 09:44:20;;;;;;;8.30;3.07;;;;;;;6.17;73.52;97805.66;4995533;28;20211;-69
2022/04/09 09:46:49;;;;;;;7.80;2.87;;;;;;;5.62;72.84;97808.38;4995461;28;20587;-69
2022/04/09 09:49:20;;;;;;;7.17;3.37;;;;;;;5.63;74.03;97817.91;4995256;28;20219;-69
2022/04/09 09:52:03;;;;;;;5.53;2.63;;;;;;;5.82;74.43;97805.88;4995673;28;20196;-70
2022/04/09 09:54:30;;;;;;;9.13;2.30;;;;;;;5.77;72.27;97811.72;4994989;28;20705;-70
2022/04/09 09:56:56;;;;;;;6.50;2.40;;;;;;;5.61;70.62;97824.41;4994898;28;20242;-69
2022/04/09 09:59:23;;;;;;;6.63;2.93;;;;;;;5.67;78.10;97813.88;4994814;28;20226;-70
2022/04/09 10:01:51;;;;;;;8.47;2.83;;;;;;;5.62;72.85;97811.03;4995524;28;20214;-70
2022/04/09 10:04:18;;;;;;;8.77;3.13;;;;;;;5.88;74.05;97821.72;4994941;28;20211;-69
2022/04/09 10:06:44;;;;;;;7.63;2.87;;;;;;;5.95;75.08;97822.59;4994616;28;20223;-70
2022/04/09 10:09:14;;;;;;;6.53;2.80;;;;;;;6.15;74.88;97806.88;4994394;28;20231;-70
2022/04/09 10:11:45;;;;;;;5.93;2.37;;;;;;;5.98;73.68;97822.19;4994846;28;20214;-70
2022/04/09 10:14:11;;;;;;;7.93;2.70;;;;;;;5.75;69.69;97821.63;4995386;28;20211;-70
2022/04/09 10:16:38;;;;;;;7.23;2.67;;;;;;;5.98;70.65;97834.59;4994937;28;20227;-70
2022/04/09 10:19:05;;;;;;;6.03;2.40;;;;;;;5.67;68.89;97839.44;4994973;28;20206;-70
2022/04/09 10:21:34;;;;;;;7.20;2.60;;;;;;;6.12;70.27;97828.34;4994108;28;20203;-70
2022/04/09 10:24:05;;;;;;;5.80;2.50;;;;;;;6.42;72.56;97835.78;4994631;28;20214;-70
2022/04/09 10:26:31;;;;;;;5.60;2.50;;;;;;;6.31;70.02;97827.63;4994643;28;20199;-71
2022/04/09 10:29:09;;;;;;;5.20;2.47;;;;;;;6.52;68.79;97835.41;4994230;28;20226;-70
2022/04/09 10:31:38;;;;;;;5.40;2.60;;;;;;;6.46;71.51;97823.81;4994351;28;20305;-71
2022/04/09 10:34:10;;;;;;;5.80;2.17;;;;;;;6.27;68.53;97826.38;4994171;28;20570;-71
2022/04/09 10:36:45;;;;;;;6.03;2.50;;;;;;;6.40;68.56;97826.44;4994762;28;20282;-70
2022/04/09 10:39:31;;;;;;;7.33;2.70;;;;;;;6.13;67.29;97832.63;4994241;28;20202;-70
2022/04/09 10:41:58;;;;;;;5.03;2.33;;;;;;;6.33;69.03;97822.97;4994628;28;20191;-71
2022/04/09 10:44:43;;;;;;;4.57;2.30;;;;;;;6.40;67.83;97829.06;4994338;28;20207;-70
2022/04/09 10:47:14;;;;;;;8.27;2.53;;;;;;;6.74;68.94;97834.25;4994404;28;20233;-70
2022/04/09 10:50:02;;;;;;;6.60;2.50;;;;;;;6.20;67.76;97822.91;4993972;28;20741;-70
2022/04/09 10:52:34;;;;;;;5.83;2.33;;;;;;;6.07;70.02;97828.94;4986967;28;20207;-70
2022/04/09 10:55:24;;;;;;;5.03;2.27;;;;;;;6.26;69.34;97817.66;4993935;28;20211;-70
2022/04/09 10:57:53;;;;;;;4.47;2.10;;;;;;;6.38;66.69;97820.53;4994248;28;20422;-70
2022/04/09 11:00:22;;;;;;;6.63;2.13;;;;;;;6.02;66.52;97817.34;4994047;28;20662;-70
2022/04/09 11:03:30;;;;;;;7.37;2.40;;;;;;;6.29;66.86;97824.38;4994197;28;20202;-70
2022/04/09 11:06:38;;;;;;;6.33;2.43;;;;;;;6.96;67.41;97822.47;4933962;29;20209;-70
2022/04/09 11:09:04;;;;;;;5.97;2.40;;;;;;;6.88;66.06;97820.06;4993910;28;20227;-70
2022/04/09 11:11:32;;;;;;;6.27;2.20;;;;;;;6.44;63.35;97817.09;4993773;28;20249;-71
2022/04/09 11:13:58;;;;;;;6.83;2.40;;;;;;;6.08;66.32;97811.28;4993976;28;20230;-70
2022/04/09 11:16:25;;;;;;;7.90;2.10;;;;;;;6.40;64.92;97816.69;4993827;28;20214;-70
2022/04/09 11:18:52;;;;;;;7.47;2.27;;;;;;;6.44;65.54;97820.56;4993604;28;20566;-71
2022/04/09 11:21:18;;;;;;;4.63;2.20;;;;;;;6.39;63.80;97825.63;4994021;28;20207;-70
2022/04/09 11:23:44;;;;;;;4.27;1.73;;;;;;;6.43;63.40;97816.28;4993901;28;20203;-69
2022/04/09 11:26:16;;;;;;;6.17;2.17;;;;;;;6.83;63.09;97822.50;4993709;28;20218;-71
2022/04/09 11:28:43;;;;;;;3.10;2.07;;;;;;;7.51;61.74;97817.63;4993647;28;20215;-71
2022/04/09 11:31:09;;;;;;;3.47;2.00;;;;;;;7.84;60.54;97813.09;4993823;28;20575;-70
2022/04/09 11:33:36;;;;;;;4.17;2.10;;;;;;;7.75;60.07;97813.50;4993710;28;20207;-71
2022/04/09 11:36:02;;;;;;;3.80;1.97;;;;;;;7.20;64.52;97812.13;4993686;28;20206;-71